Schedule Details


Flight Number: CTN491
Departure: Heathrow (EGLL) at 10:50
Arrival: Franjo Tudman (LDZA) at 14:05
Route: DET UL6 DVR L9 KONAN UL607 KOK UM150 PITES UZ380 MAH Y161 MUN UM867 VAROB DCT PIKIT DCT ARGOM

Weather Information
EGLL 172350Z AUTO 04005KT 360V070 9999 BKN008 OVC033 17/15 Q1014
LDZA 172300Z 00000KT CAVOK 18/15 Q1017 NOSIG
Schedule Frequency

Route Map